createdAt,value
2019-02-18T00:01:36.141Z,7.28
2019-02-18T00:04:03.106Z,7.13
2019-02-18T00:06:30.009Z,6.79
2019-02-18T00:08:56.707Z,6.79
2019-02-18T00:11:23.290Z,6.68
2019-02-18T00:13:50.147Z,6.76
2019-02-18T00:16:17.038Z,6.73
2019-02-18T00:18:43.667Z,6.62
2019-02-18T00:21:10.271Z,6.63
2019-02-18T00:23:37.158Z,6.43
2019-02-18T00:26:05.016Z,6.38
2019-02-18T00:28:31.685Z,6.24
2019-02-18T00:30:58.347Z,6.34
2019-02-18T00:33:24.958Z,6.12
2019-02-18T00:35:51.617Z,6.14
2019-02-18T00:38:18.531Z,6.23
2019-02-18T00:40:45.538Z,6.39
2019-02-18T00:43:12.392Z,6.48
2019-02-18T00:45:39.189Z,6.37
2019-02-18T00:48:06.228Z,6.34
2019-02-18T00:50:32.962Z,6.35
2019-02-18T00:52:59.654Z,6.23
2019-02-18T00:55:26.679Z,6.24
2019-02-18T00:57:53.327Z,6.17
2019-02-18T01:00:19.924Z,6.31
2019-02-18T01:02:46.737Z,6.42
2019-02-18T01:05:13.628Z,6.41
2019-02-18T01:07:41.131Z,6.38
2019-02-18T01:10:07.877Z,6.12
2019-02-18T01:12:34.550Z,6.11
2019-02-18T01:15:01.237Z,6.24
2019-02-18T01:17:28.181Z,6.22
2019-02-18T01:19:54.789Z,6.28
2019-02-18T01:22:21.464Z,6.26
2019-02-18T01:24:48.077Z,6.09
2019-02-18T01:27:14.674Z,6.18
2019-02-18T01:29:42.095Z,6.11
2019-02-18T01:32:08.801Z,6.20
2019-02-18T01:34:35.581Z,6.21
2019-02-18T01:37:02.169Z,6.11
2019-02-18T01:39:29.110Z,5.88
2019-02-18T01:41:56.479Z,5.84
2019-02-18T01:44:23.364Z,5.98
2019-02-18T01:46:50.029Z,6.05
2019-02-18T01:49:16.681Z,5.91
2019-02-18T01:51:43.717Z,5.95
2019-02-18T01:54:10.444Z,6.07
2019-02-18T01:56:37.059Z,6.08
2019-02-18T01:59:04.200Z,6.09
2019-02-18T02:01:31.366Z,5.92
2019-02-18T02:03:58.348Z,5.87
2019-02-18T02:06:24.921Z,5.95
2019-02-18T02:08:51.641Z,5.88
2019-02-18T02:11:18.630Z,5.72
2019-02-18T02:13:45.895Z,5.71
2019-02-18T02:16:14.275Z,5.75
2019-02-18T02:18:41.003Z,5.83
2019-02-18T02:21:07.966Z,5.78
2019-02-18T02:23:34.642Z,5.86
2019-02-18T02:26:01.289Z,5.93
2019-02-18T02:28:27.958Z,5.93
2019-02-18T02:30:54.852Z,6.00
2019-02-18T02:33:21.525Z,6.06
2019-02-18T02:35:48.425Z,6.02
2019-02-18T02:38:16.505Z,5.85
2019-02-18T02:40:45.771Z,5.75
2019-02-18T02:43:12.403Z,5.76
2019-02-18T02:48:19.564Z,5.71
2019-02-18T02:50:46.329Z,5.60
2019-02-18T02:53:13.151Z,5.51
2019-02-18T02:55:40.109Z,5.66
2019-02-18T02:58:06.735Z,5.64
2019-02-18T03:00:33.447Z,5.68
2019-02-18T03:03:00.222Z,5.86
2019-02-18T03:05:27.128Z,5.98
2019-02-18T03:07:53.829Z,5.83
2019-02-18T03:10:20.523Z,5.74
2019-02-18T03:12:47.392Z,5.78
2019-02-18T03:15:15.775Z,5.85
2019-02-18T03:17:42.506Z,5.84
2019-02-18T03:20:09.372Z,5.83
2019-02-18T03:22:36.034Z,5.80
2019-02-18T03:25:02.962Z,5.84
2019-02-18T03:27:29.802Z,5.64
2019-02-18T03:29:56.736Z,5.58
2019-02-18T03:32:23.888Z,5.59
2019-02-18T03:34:50.793Z,5.54
2019-02-18T03:37:17.697Z,5.47
2019-02-18T03:39:46.121Z,5.56
2019-02-18T03:42:13.963Z,5.60
2019-02-18T03:44:40.803Z,5.45
2019-02-18T03:47:07.469Z,5.43
2019-02-18T03:49:34.176Z,5.59
2019-02-18T03:52:00.935Z,5.41
2019-02-18T03:54:27.873Z,5.44
2019-02-18T03:56:55.007Z,5.41
2019-02-18T03:59:21.961Z,5.50
2019-02-18T04:01:49.017Z,5.50
2019-02-18T04:04:16.382Z,5.47
2019-02-18T04:06:43.181Z,5.36
2019-02-18T04:09:10.159Z,5.33
2019-02-18T04:11:37.056Z,5.13
2019-02-18T04:14:03.766Z,5.16
2019-02-18T04:16:30.430Z,5.24
2019-02-18T04:18:57.671Z,5.38
2019-02-18T04:21:24.432Z,5.16
2019-02-18T04:23:51.073Z,5.11
2019-02-18T04:26:17.745Z,5.07
2019-02-18T04:28:44.488Z,4.94
2019-02-18T04:31:11.103Z,4.98
2019-02-18T04:33:37.746Z,5.11
2019-02-18T04:36:04.567Z,5.13
2019-02-18T04:38:31.194Z,5.12
2019-02-18T04:40:57.921Z,5.30
2019-02-18T04:43:24.924Z,5.14
2019-02-18T04:45:51.678Z,5.01
2019-02-18T04:48:19.205Z,4.76
2019-02-18T04:50:47.052Z,4.93
2019-02-18T04:53:13.800Z,5.09
2019-02-18T04:55:40.749Z,5.05
2019-02-18T04:58:07.300Z,5.06
2019-02-18T05:00:33.950Z,5.04
2019-02-18T05:03:01.208Z,5.17
2019-02-18T05:05:28.174Z,5.22
2019-02-18T05:07:56.455Z,5.10
2019-02-18T05:10:23.242Z,5.21
2019-02-18T05:12:50.061Z,5.45
2019-02-18T05:15:17.824Z,5.49
2019-02-18T05:17:44.403Z,5.38
2019-02-18T05:20:11.147Z,5.26
2019-02-18T05:22:38.244Z,5.19
2019-02-18T05:25:05.252Z,5.24
2019-02-18T05:27:33.529Z,5.11
2019-02-18T05:30:00.679Z,5.12
2019-02-18T05:32:27.317Z,5.02
2019-02-18T05:34:54.214Z,4.90
2019-02-18T05:37:20.882Z,5.03
2019-02-18T05:39:47.706Z,5.03
2019-02-18T05:42:14.391Z,5.02
2019-02-18T05:44:41.847Z,5.08
2019-02-18T05:47:08.459Z,5.10
2019-02-18T05:49:38.294Z,5.05
2019-02-18T05:52:05.206Z,5.13
2019-02-18T05:54:31.798Z,5.09
2019-02-18T05:56:58.670Z,4.89
2019-02-18T05:59:25.675Z,4.82
2019-02-18T06:01:52.636Z,4.77
2019-02-18T06:04:19.583Z,4.95
2019-02-18T06:06:47.600Z,4.83
2019-02-18T06:09:14.235Z,4.74
2019-02-18T06:11:40.854Z,5.06
2019-02-18T06:14:07.743Z,5.18
2019-02-18T06:16:34.500Z,5.19
2019-02-18T06:19:01.103Z,5.13
2019-02-18T06:21:27.919Z,5.13
2019-02-18T06:23:54.809Z,5.07
2019-02-18T06:26:22.135Z,5.11
2019-02-18T06:28:49.004Z,5.25
2019-02-18T06:31:15.963Z,5.18
2019-02-18T06:33:42.704Z,4.90
2019-02-18T06:36:09.348Z,4.95
2019-02-18T06:38:36.085Z,5.12
2019-02-18T06:41:02.680Z,5.17
2019-02-18T06:43:29.592Z,5.31
2019-02-18T06:45:58.493Z,5.33
2019-02-18T06:48:25.475Z,5.35
2019-02-18T06:50:52.202Z,5.58
2019-02-18T06:53:18.929Z,5.73
2019-02-18T06:55:45.534Z,5.84
2019-02-18T06:58:15.310Z,6.09
2019-02-18T07:00:41.923Z,6.28
2019-02-18T07:03:08.543Z,6.45
2019-02-18T07:05:35.818Z,6.61
2019-02-18T07:08:02.512Z,6.45
2019-02-18T07:10:29.200Z,6.46
2019-02-18T07:12:55.887Z,6.57
2019-02-18T07:15:22.917Z,6.73
2019-02-18T07:17:49.720Z,6.67
2019-02-18T07:20:16.707Z,6.92
2019-02-18T07:22:43.419Z,7.10
2019-02-18T07:25:13.762Z,7.17
2019-02-18T07:27:40.398Z,7.41
2019-02-18T07:30:09.519Z,7.57
2019-02-18T07:32:36.928Z,7.55
2019-02-18T07:35:06.146Z,7.78
2019-02-18T07:37:35.818Z,8.18
2019-02-18T07:40:08.933Z,8.41
2019-02-18T07:42:39.028Z,8.56
2019-02-18T07:45:07.873Z,8.69
2019-02-18T07:47:39.298Z,8.81
2019-02-18T07:50:06.867Z,9.00
2019-02-18T07:52:34.443Z,9.15
2019-02-18T07:55:04.209Z,9.25
2019-02-18T07:57:30.544Z,9.38
2019-02-18T07:59:58.300Z,9.67
2019-02-18T08:02:25.548Z,9.94
2019-02-18T08:04:52.584Z,10.05
2019-02-18T08:07:19.697Z,10.39
2019-02-18T08:09:46.340Z,10.53
2019-02-18T08:12:12.975Z,10.70
2019-02-18T08:14:39.711Z,10.87
2019-02-18T08:17:06.498Z,11.08
2019-02-18T08:19:33.164Z,11.27
2019-02-18T08:21:59.910Z,11.30
2019-02-18T08:24:26.576Z,11.58
2019-02-18T08:26:53.250Z,11.68
2019-02-18T08:29:20.077Z,11.77
2019-02-18T08:31:46.730Z,12.13
2019-02-18T08:34:13.661Z,12.07
2019-02-18T08:36:40.256Z,12.36
2019-02-18T08:39:06.849Z,12.42
2019-02-18T08:41:34.181Z,12.71
2019-02-18T08:44:00.929Z,12.88
2019-02-18T08:46:28.147Z,13.03
2019-02-18T08:48:55.029Z,12.95
2019-02-18T08:51:24.241Z,13.19
2019-02-18T08:53:51.166Z,13.32
2019-02-18T08:56:21.109Z,13.56
2019-02-18T08:58:47.480Z,13.69
2019-02-18T09:01:14.135Z,13.71
2019-02-18T09:03:42.462Z,13.75
2019-02-18T09:06:09.961Z,14.07
2019-02-18T09:08:37.294Z,14.23
2019-02-18T09:11:06.261Z,14.40
2019-02-18T09:13:32.875Z,14.61
2019-02-18T09:16:00.566Z,14.75
2019-02-18T09:18:29.754Z,14.89
2019-02-18T09:20:58.527Z,14.91
2019-02-18T09:23:28.419Z,15.10
2019-02-18T09:25:55.328Z,15.29
2019-02-18T09:28:21.970Z,15.46
2019-02-18T09:30:48.604Z,15.37
2019-02-18T09:33:15.351Z,15.65
2019-02-18T09:35:43.043Z,15.63
2019-02-18T09:38:09.981Z,15.74
2019-02-18T09:40:44.255Z,16.02
2019-02-18T09:43:08.175Z,15.99
2019-02-18T09:45:37.091Z,16.03
2019-02-18T09:48:07.317Z,16.28
2019-02-18T09:50:35.661Z,16.31
2019-02-18T09:53:04.738Z,16.42
2019-02-18T09:55:35.139Z,16.49
2019-02-18T09:58:02.900Z,16.67
2019-02-18T10:00:31.160Z,16.91
2019-02-18T10:02:58.859Z,17.11
2019-02-18T10:08:13.834Z,17.11
2019-02-18T10:10:43.721Z,17.26
2019-02-18T10:13:16.508Z,17.48
2019-02-18T10:15:46.134Z,17.51
2019-02-18T10:18:13.312Z,17.61
2019-02-18T10:20:44.685Z,17.79
2019-02-18T10:23:16.365Z,18.17
2019-02-18T10:25:48.247Z,18.26
2019-02-18T10:28:15.714Z,18.38
2019-02-18T10:30:44.869Z,18.43
2019-02-18T10:33:14.560Z,18.20
2019-02-18T10:35:42.656Z,18.65
2019-02-18T10:38:10.479Z,18.75
2019-02-18T10:40:39.554Z,18.86
2019-02-18T10:43:07.762Z,18.88
2019-02-18T10:45:36.910Z,18.81
2019-02-18T10:48:07.403Z,18.88
2019-02-18T10:50:38.226Z,18.92
2019-02-18T10:53:06.321Z,19.31
2019-02-18T10:55:34.502Z,19.34
2019-02-18T10:58:01.192Z,19.39
2019-02-18T11:00:30.076Z,19.72
2019-02-18T11:02:56.856Z,19.91
2019-02-18T11:05:24.216Z,20.17
2019-02-18T11:07:54.806Z,20.23
2019-02-18T11:10:23.560Z,20.19
2019-02-18T11:12:51.411Z,20.19
2019-02-18T11:15:25.623Z,20.24
2019-02-18T11:17:55.713Z,20.17
2019-02-18T11:20:24.245Z,20.00
2019-02-18T11:22:52.373Z,20.05
2019-02-18T11:25:19.181Z,20.25
2019-02-18T11:27:45.853Z,20.11
2019-02-18T11:30:14.533Z,20.00
2019-02-18T11:32:41.806Z,20.22
2019-02-18T11:35:09.532Z,20.29
2019-02-18T11:37:37.717Z,20.63
2019-02-18T11:40:04.767Z,21.22
2019-02-18T11:42:32.655Z,21.45
2019-02-18T11:44:59.522Z,21.43
2019-02-18T11:47:29.329Z,21.13
2019-02-18T11:49:57.009Z,21.02
2019-02-18T11:52:24.321Z,20.87
2019-02-18T11:54:51.032Z,20.99
2019-02-18T11:57:23.918Z,21.03
2019-02-18T11:59:52.958Z,20.92
2019-02-18T12:02:22.984Z,21.20
2019-02-18T12:04:53.255Z,21.37
2019-02-18T12:07:24.054Z,21.62
2019-02-18T12:09:50.793Z,21.23
2019-02-18T12:15:05.809Z,21.27
2019-02-18T12:17:35.910Z,21.59
2019-02-18T12:20:03.914Z,21.84
2019-02-18T12:22:32.220Z,21.78
2019-02-18T12:25:01.046Z,21.85
2019-02-18T12:27:32.136Z,22.21
2019-02-18T12:30:06.911Z,22.26
2019-02-18T12:32:30.803Z,21.84
2019-02-18T12:34:58.375Z,21.47
2019-02-18T12:37:29.945Z,21.64
2019-02-18T12:39:58.434Z,21.82
2019-02-18T12:42:27.598Z,22.09
2019-02-18T12:44:54.847Z,21.92
2019-02-18T12:47:22.803Z,21.74
2019-02-18T12:49:51.052Z,21.62
2019-02-18T12:52:17.955Z,21.86
2019-02-18T12:54:44.797Z,22.12
2019-02-18T12:57:12.158Z,22.11
2019-02-18T12:59:39.243Z,22.06
2019-02-18T13:02:05.931Z,22.32
2019-02-18T13:04:32.823Z,22.44
2019-02-18T13:06:59.770Z,22.31
2019-02-18T13:09:26.789Z,22.19
2019-02-18T13:11:59.042Z,22.33
2019-02-18T13:14:23.987Z,22.53
2019-02-18T13:16:50.711Z,22.38
2019-02-18T13:19:17.360Z,22.17
2019-02-18T13:21:44.089Z,22.07
2019-02-18T13:24:10.926Z,21.93
2019-02-18T13:26:38.212Z,21.77
2019-02-18T13:29:05.206Z,21.79
2019-02-18T13:31:32.332Z,22.19
2019-02-18T13:33:59.015Z,22.49
2019-02-18T13:36:26.638Z,22.44
2019-02-18T13:38:54.386Z,22.24
2019-02-18T13:41:21.141Z,22.41
2019-02-18T13:43:48.143Z,22.46
2019-02-18T13:46:15.302Z,22.70
2019-02-18T13:48:42.510Z,22.80
2019-02-18T13:51:09.515Z,22.76
2019-02-18T13:53:36.220Z,22.26
2019-02-18T13:56:02.860Z,22.26
2019-02-18T13:58:29.797Z,22.47
2019-02-18T14:00:56.818Z,22.47
2019-02-18T14:03:24.826Z,22.35
2019-02-18T14:05:51.581Z,22.47
2019-02-18T14:08:18.567Z,22.43
2019-02-18T14:10:45.382Z,22.37
2019-02-18T14:13:12.111Z,22.43
2019-02-18T14:15:39.430Z,22.26
2019-02-18T14:18:06.343Z,21.78
2019-02-18T14:20:33.011Z,21.90
2019-02-18T14:23:00.118Z,22.17
2019-02-18T14:25:26.790Z,22.20
2019-02-18T14:27:55.195Z,22.34
2019-02-18T14:30:21.893Z,22.33
2019-02-18T14:32:48.626Z,22.37
2019-02-18T14:35:15.278Z,22.33
2019-02-18T14:37:42.183Z,22.13
2019-02-18T14:40:09.448Z,22.20
2019-02-18T14:42:37.391Z,22.14
2019-02-18T14:45:04.445Z,21.81
2019-02-18T14:47:31.384Z,21.84
2019-02-18T14:49:58.329Z,21.42
2019-02-18T14:52:25.797Z,21.22
2019-02-18T14:54:52.487Z,21.50
2019-02-18T14:57:19.639Z,21.46
2019-02-18T14:59:46.580Z,21.47
2019-02-18T15:02:13.832Z,21.30
2019-02-18T15:04:40.804Z,21.15
2019-02-18T15:07:07.632Z,21.12
2019-02-18T15:09:34.731Z,20.95
2019-02-18T15:12:01.946Z,20.93
2019-02-18T15:14:28.971Z,20.98
2019-02-18T15:16:56.509Z,20.93
2019-02-18T15:19:23.161Z,20.82
2019-02-18T15:21:49.987Z,20.81
2019-02-18T15:24:16.888Z,20.82
2019-02-18T15:26:44.436Z,20.80
2019-02-18T15:29:11.493Z,20.76
2019-02-18T15:31:38.404Z,20.79
2019-02-18T15:34:05.772Z,20.80
2019-02-18T15:36:32.422Z,20.70
2019-02-18T15:38:59.390Z,20.65
2019-02-18T15:41:26.760Z,20.56
2019-02-18T15:43:53.443Z,20.30
2019-02-18T15:46:20.303Z,20.16
2019-02-18T15:48:46.971Z,20.01
2019-02-18T15:51:13.885Z,19.86
2019-02-18T15:53:40.805Z,19.72
2019-02-18T15:56:14.816Z,19.59
2019-02-18T15:58:41.619Z,19.40
2019-02-18T16:01:08.805Z,19.32
2019-02-18T16:03:35.722Z,19.19
2019-02-18T16:06:02.369Z,18.98
2019-02-18T16:08:29.240Z,18.76
2019-02-18T16:10:57.156Z,18.71
2019-02-18T16:13:23.844Z,18.72
2019-02-18T16:15:50.943Z,18.51
2019-02-18T16:18:17.972Z,18.29
2019-02-18T16:20:45.105Z,18.14
2019-02-18T16:23:12.067Z,17.93
2019-02-18T16:25:38.908Z,17.67
2019-02-18T16:28:06.169Z,17.39
2019-02-18T16:30:33.082Z,17.11
2019-02-18T16:32:59.975Z,16.97
2019-02-18T16:35:27.573Z,16.85
2019-02-18T16:37:54.336Z,16.69
2019-02-18T16:40:21.233Z,16.57
2019-02-18T16:42:48.113Z,16.45
2019-02-18T16:45:15.400Z,16.25
2019-02-18T16:47:42.221Z,16.05
2019-02-18T16:50:08.950Z,15.95
2019-02-18T16:52:36.973Z,15.89
2019-02-18T16:55:03.716Z,15.76
2019-02-18T16:57:32.148Z,15.60
2019-02-18T16:59:59.562Z,15.50
2019-02-18T17:02:28.171Z,15.32
2019-02-18T17:04:55.674Z,15.26
2019-02-18T17:07:22.562Z,15.16
2019-02-18T17:09:50.005Z,15.13
2019-02-18T17:12:17.852Z,15.11
2019-02-18T17:14:46.352Z,15.04
2019-02-18T17:17:13.984Z,15.00
2019-02-18T17:19:41.507Z,14.75
2019-02-18T17:22:08.365Z,14.63
2019-02-18T17:24:35.563Z,14.67
2019-02-18T17:27:02.637Z,14.67
2019-02-18T17:29:30.209Z,14.66
2019-02-18T17:31:58.334Z,14.56
2019-02-18T17:34:25.289Z,14.30
2019-02-18T17:36:52.195Z,14.23
2019-02-18T17:39:19.651Z,13.79
2019-02-18T17:41:47.148Z,13.70
2019-02-18T17:44:19.926Z,13.63
2019-02-18T17:46:43.146Z,13.57
2019-02-18T17:49:09.802Z,13.41
2019-02-18T17:51:37.593Z,13.26
2019-02-18T17:54:05.062Z,13.03
2019-02-18T17:56:32.217Z,12.99
2019-02-18T17:59:00.460Z,12.99
2019-02-18T18:01:27.458Z,13.04
2019-02-18T18:03:54.927Z,13.00
2019-02-18T18:06:24.057Z,12.78
2019-02-18T18:08:51.431Z,12.66
2019-02-18T18:11:19.155Z,12.81
2019-02-18T18:13:46.234Z,12.58
2019-02-18T18:16:12.976Z,12.53
2019-02-18T18:18:40.381Z,12.51
2019-02-18T18:21:07.131Z,12.46
2019-02-18T18:23:34.155Z,12.25
2019-02-18T18:26:00.954Z,12.13
2019-02-18T18:28:27.969Z,11.97
2019-02-18T18:30:55.160Z,12.06
2019-02-18T18:33:21.833Z,11.88
2019-02-18T18:35:48.876Z,11.74
2019-02-18T18:38:15.849Z,11.79
2019-02-18T18:40:42.854Z,11.69
2019-02-18T18:43:09.784Z,11.70
2019-02-18T18:45:38.697Z,11.68
2019-02-18T18:48:08.443Z,11.52
2019-02-18T18:50:37.110Z,11.46
2019-02-18T18:53:07.150Z,11.34
2019-02-18T18:55:35.580Z,11.31
2019-02-18T18:58:03.447Z,11.36
2019-02-18T19:00:33.390Z,11.38
2019-02-18T19:03:05.653Z,11.23
2019-02-18T19:05:33.261Z,11.19
2019-02-18T19:08:01.772Z,11.18
2019-02-18T19:10:29.831Z,11.24
2019-02-18T19:12:59.704Z,11.20
2019-02-18T19:15:29.880Z,11.21
2019-02-18T19:17:58.731Z,11.19
2019-02-18T19:23:16.059Z,11.05
2019-02-18T19:25:43.708Z,11.13
2019-02-18T19:28:14.558Z,10.92
2019-02-18T19:30:45.247Z,10.88
2019-02-18T19:33:14.795Z,10.65
2019-02-18T19:35:42.152Z,10.57
2019-02-18T19:38:09.837Z,10.48
2019-02-18T19:40:37.997Z,10.37
2019-02-18T19:43:05.437Z,10.39
2019-02-18T19:45:34.348Z,10.28
2019-02-18T19:48:04.031Z,10.23
2019-02-18T19:50:31.422Z,10.23
2019-02-18T19:53:13.712Z,10.12
2019-02-18T19:55:29.727Z,10.00
2019-02-18T19:57:58.953Z,9.87
2019-02-18T20:00:28.291Z,9.96
2019-02-18T20:02:56.074Z,10.01
2019-02-18T20:05:22.668Z,9.95
2019-02-18T20:07:49.587Z,9.93
2019-02-18T20:10:16.241Z,9.97
2019-02-18T20:12:43.127Z,9.88
2019-02-18T20:15:12.089Z,9.83
2019-02-18T20:17:40.429Z,9.72
2019-02-18T20:20:07.342Z,9.63
2019-02-18T20:22:34.669Z,9.62
2019-02-18T20:25:01.291Z,9.70
2019-02-18T20:27:28.224Z,9.68
2019-02-18T20:29:55.009Z,9.91
2019-02-18T20:32:23.539Z,9.90
2019-02-18T20:34:50.768Z,9.82
2019-02-18T20:37:17.967Z,9.57
2019-02-18T20:39:45.553Z,9.52
2019-02-18T20:42:13.510Z,9.39
2019-02-18T20:47:11.805Z,9.45
2019-02-18T20:49:38.892Z,9.38
2019-02-18T20:52:05.564Z,9.43
2019-02-18T20:54:32.208Z,9.43
2019-02-18T20:56:58.845Z,9.53
2019-02-18T20:59:27.972Z,9.33
2019-02-18T21:01:54.886Z,9.25
2019-02-18T21:04:21.823Z,9.03
2019-02-18T21:06:48.606Z,8.84
2019-02-18T21:09:15.295Z,8.75
2019-02-18T21:11:42.313Z,8.70
2019-02-18T21:14:15.899Z,8.81
2019-02-18T21:16:39.211Z,8.63
2019-02-18T21:19:06.991Z,8.60
2019-02-18T21:21:33.848Z,8.61
2019-02-18T21:24:00.746Z,8.52
2019-02-18T21:26:27.386Z,8.53
2019-02-18T21:28:54.332Z,8.55
2019-02-18T21:31:22.223Z,8.51
2019-02-18T21:33:49.282Z,8.42
2019-02-18T21:36:16.384Z,8.46
2019-02-18T21:38:43.116Z,8.39
2019-02-18T21:41:10.026Z,8.46
2019-02-18T21:43:36.631Z,8.53
2019-02-18T21:46:03.296Z,8.55
2019-02-18T21:48:30.188Z,8.39
2019-02-18T21:50:57.370Z,8.25
2019-02-18T21:53:24.223Z,8.10
2019-02-18T21:55:50.803Z,7.94
2019-02-18T21:58:17.419Z,7.88
2019-02-18T22:00:44.377Z,7.83
2019-02-18T22:03:11.565Z,7.88
2019-02-18T22:05:39.799Z,7.87
2019-02-18T22:08:06.708Z,7.89
2019-02-18T22:10:33.632Z,7.96
2019-02-18T22:13:00.680Z,7.90
2019-02-18T22:15:27.583Z,7.89
2019-02-18T22:17:54.714Z,7.97
2019-02-18T22:20:21.308Z,7.82
2019-02-18T22:22:47.983Z,7.82
2019-02-18T22:25:14.862Z,7.70
2019-02-18T22:27:41.795Z,7.59
2019-02-18T22:30:10.318Z,7.69
2019-02-18T22:32:36.946Z,7.77
2019-02-18T22:35:03.809Z,7.69
2019-02-18T22:37:31.051Z,7.70
2019-02-18T22:39:58.032Z,7.64
2019-02-18T22:42:24.614Z,7.59
2019-02-18T22:44:51.265Z,7.60
2019-02-18T22:47:18.069Z,7.53
2019-02-18T22:49:44.869Z,7.60
2019-02-18T22:52:11.507Z,7.68
2019-02-18T22:54:38.251Z,7.64
2019-02-18T22:57:05.360Z,7.56
2019-02-18T22:59:32.334Z,7.59
2019-02-18T23:01:58.964Z,7.52
2019-02-18T23:04:25.699Z,7.42
2019-02-18T23:06:52.378Z,7.36
2019-02-18T23:09:18.966Z,7.41
2019-02-18T23:11:45.591Z,7.45
2019-02-18T23:14:12.535Z,7.34
2019-02-18T23:16:41.104Z,7.42
2019-02-18T23:19:07.790Z,7.36
2019-02-18T23:21:34.705Z,7.18
2019-02-18T23:24:01.937Z,6.99
2019-02-18T23:26:28.756Z,7.07
2019-02-18T23:28:55.697Z,7.08
2019-02-18T23:31:22.301Z,6.92
2019-02-18T23:33:48.946Z,6.93
2019-02-18T23:36:15.768Z,6.95
2019-02-18T23:38:42.352Z,7.12
2019-02-18T23:41:09.019Z,7.11
2019-02-18T23:43:36.035Z,7.12
2019-02-18T23:46:03.213Z,7.06
2019-02-18T23:48:30.060Z,6.96
2019-02-18T23:50:57.286Z,6.97
2019-02-18T23:53:23.970Z,6.90
2019-02-18T23:55:51.117Z,6.83
2019-02-18T23:58:18.037Z,6.84
